sensor_id;sensor_type;location;lat;lon;timestamp;temperature;humidity
23081;DHT22;11708;50.570;8.532;2023-05-13T00:01:06;11.10;99.90
23081;DHT22;11708;50.570;8.532;2023-05-13T00:03:31;11.10;99.90
23081;DHT22;11708;50.570;8.532;2023-05-13T00:05:57;11.10;99.90
23081;DHT22;11708;50.570;8.532;2023-05-13T00:08:23;11.00;99.90
23081;DHT22;11708;50.570;8.532;2023-05-13T00:10:48;11.00;99.90
23081;DHT22;11708;50.570;8.532;2023-05-13T00:13:14;11.00;99.90
23081;DHT22;11708;50.570;8.532;2023-05-13T00:15:39;11.00;99.90
23081;DHT22;11708;50.570;8.532;2023-05-13T00:18:05;10.90;99.90
23081;DHT22;11708;50.570;8.532;2023-05-13T00:20:31;10.90;99.90
23081;DHT22;11708;50.570;8.532;2023-05-13T00:22:57;10.90;99.90
23081;DHT22;11708;50.570;8.532;2023-05-13T00:25:22;11.10;99.90
23081;DHT22;11708;50.570;8.532;2023-05-13T00:27:48;10.90;99.90
23081;DHT22;11708;50.570;8.532;2023-05-13T00:30:14;10.90;99.90
23081;DHT22;11708;50.570;8.532;2023-05-13T00:32:39;10.90;99.90
23081;DHT22;11708;50.570;8.532;2023-05-13T00:35:05;10.90;99.90
23081;DHT22;11708;50.570;8.532;2023-05-13T00:37:31;10.90;99.90
23081;DHT22;11708;50.570;8.532;2023-05-13T00:39:56;11.00;99.90
23081;DHT22;11708;50.570;8.532;2023-05-13T00:42:22;11.00;99.90
23081;DHT22;11708;50.570;8.532;2023-05-13T00:44:47;11.00;99.90
23081;DHT22;11708;50.570;8.532;2023-05-13T00:47:13;11.00;99.90
23081;DHT22;11708;50.570;8.532;2023-05-13T00:49:39;11.00;99.90
23081;DHT22;11708;50.570;8.532;2023-05-13T00:52:05;11.00;99.90
23081;DHT22;11708;50.570;8.532;2023-05-13T00:54:31;10.90;99.90
23081;DHT22;11708;50.570;8.532;2023-05-13T00:56:57;11.00;99.90
23081;DHT22;11708;50.570;8.532;2023-05-13T00:59:25;11.00;99.90
23081;DHT22;11708;50.570;8.532;2023-05-13T01:01:58;11.00;99.90
23081;DHT22;11708;50.570;8.532;2023-05-13T01:07:15;11.00;99.90
23081;DHT22;11708;50.570;8.532;2023-05-13T01:10:06;11.00;99.90
23081;DHT22;11708;50.570;8.532;2023-05-13T01:12:39;11.00;99.90
23081;DHT22;11708;50.570;8.532;2023-05-13T01:15:14;10.90;99.90
23081;DHT22;11708;50.570;8.532;2023-05-13T01:17:45;11.00;99.90
23081;DHT22;11708;50.570;8.532;2023-05-13T01:20:11;11.00;99.90
23081;DHT22;11708;50.570;8.532;2023-05-13T01:22:38;11.00;99.90
23081;DHT22;11708;50.570;8.532;2023-05-13T01:25:03;11.00;99.90
23081;DHT22;11708;50.570;8.532;2023-05-13T01:27:29;11.00;99.90
23081;DHT22;11708;50.570;8.532;2023-05-13T01:29:55;10.90;99.90
23081;DHT22;11708;50.570;8.532;2023-05-13T01:32:21;11.00;99.90
23081;DHT22;11708;50.570;8.532;2023-05-13T01:34:49;11.00;99.90
23081;DHT22;11708;50.570;8.532;2023-05-13T01:37:15;11.00;99.90
23081;DHT22;11708;50.570;8.532;2023-05-13T01:39:41;11.00;99.90
23081;DHT22;11708;50.570;8.532;2023-05-13T01:42:07;11.00;99.90
23081;DHT22;11708;50.570;8.532;2023-05-13T01:44:32;11.00;99.90
23081;DHT22;11708;50.570;8.532;2023-05-13T01:46:58;11.00;99.90
23081;DHT22;11708;50.570;8.532;2023-05-13T01:49:24;11.00;99.90
23081;DHT22;11708;50.570;8.532;2023-05-13T01:51:50;10.90;99.90
23081;DHT22;11708;50.570;8.532;2023-05-13T01:54:15;10.90;99.90
23081;DHT22;11708;50.570;8.532;2023-05-13T01:56:41;10.90;99.90
23081;DHT22;11708;50.570;8.532;2023-05-13T01:59:08;10.80;99.90
23081;DHT22;11708;50.570;8.532;2023-05-13T02:01:34;10.80;99.90
23081;DHT22;11708;50.570;8.532;2023-05-13T02:04:01;10.80;99.90
23081;DHT22;11708;50.570;8.532;2023-05-13T02:06:28;10.70;99.90
23081;DHT22;11708;50.570;8.532;2023-05-13T02:08:53;10.70;99.90
23081;DHT22;11708;50.570;8.532;2023-05-13T02:11:19;10.70;99.90
23081;DHT22;11708;50.570;8.532;2023-05-13T02:13:45;10.70;99.90
23081;DHT22;11708;50.570;8.532;2023-05-13T02:16:15;10.60;99.90
23081;DHT22;11708;50.570;8.532;2023-05-13T02:18:40;10.60;99.90
23081;DHT22;11708;50.570;8.532;2023-05-13T02:21:06;10.60;99.90
23081;DHT22;11708;50.570;8.532;2023-05-13T02:23:31;10.50;99.90
23081;DHT22;11708;50.570;8.532;2023-05-13T02:25:57;10.50;99.90
23081;DHT22;11708;50.570;8.532;2023-05-13T02:28:23;10.50;99.90
23081;DHT22;11708;50.570;8.532;2023-05-13T02:30:48;10.50;99.90
23081;DHT22;11708;50.570;8.532;2023-05-13T02:33:14;10.50;99.90
23081;DHT22;11708;50.570;8.532;2023-05-13T02:35:40;10.60;99.90
23081;DHT22;11708;50.570;8.532;2023-05-13T02:38:08;10.40;99.90
23081;DHT22;11708;50.570;8.532;2023-05-13T02:40:34;10.40;99.90
23081;DHT22;11708;50.570;8.532;2023-05-13T02:42:59;10.40;99.90
23081;DHT22;11708;50.570;8.532;2023-05-13T02:45:25;10.10;99.90
23081;DHT22;11708;50.570;8.532;2023-05-13T02:47:51;10.30;99.90
23081;DHT22;11708;50.570;8.532;2023-05-13T02:50:16;10.30;99.90
23081;DHT22;11708;50.570;8.532;2023-05-13T02:52:42;10.30;99.90
23081;DHT22;11708;50.570;8.532;2023-05-13T02:55:08;10.20;99.90
23081;DHT22;11708;50.570;8.532;2023-05-13T02:57:34;10.20;99.90
23081;DHT22;11708;50.570;8.532;2023-05-13T03:00:01;10.20;99.90
23081;DHT22;11708;50.570;8.532;2023-05-13T03:02:28;10.10;99.90
23081;DHT22;11708;50.570;8.532;2023-05-13T03:04:54;10.10;99.90
23081;DHT22;11708;50.570;8.532;2023-05-13T03:07:21;9.80;99.90
23081;DHT22;11708;50.570;8.532;2023-05-13T03:09:46;10.00;99.90
23081;DHT22;11708;50.570;8.532;2023-05-13T03:12:12;10.00;99.90
23081;DHT22;11708;50.570;8.532;2023-05-13T03:14:38;10.00;99.90
23081;DHT22;11708;50.570;8.532;2023-05-13T03:17:09;10.00;99.90
23081;DHT22;11708;50.570;8.532;2023-05-13T03:19:37;10.00;99.90
23081;DHT22;11708;50.570;8.532;2023-05-13T03:22:03;10.00;99.90
23081;DHT22;11708;50.570;8.532;2023-05-13T03:24:29;9.90;99.90
23081;DHT22;11708;50.570;8.532;2023-05-13T03:26:55;10.00;99.90
23081;DHT22;11708;50.570;8.532;2023-05-13T03:29:21;10.00;99.90
23081;DHT22;11708;50.570;8.532;2023-05-13T03:31:47;10.00;99.90
23081;DHT22;11708;50.570;8.532;2023-05-13T03:34:13;10.10;99.90
23081;DHT22;11708;50.570;8.532;2023-05-13T03:36:38;10.10;99.90
23081;DHT22;11708;50.570;8.532;2023-05-13T03:39:04;10.00;99.90
23081;DHT22;11708;50.570;8.532;2023-05-13T03:41:29;10.10;99.90
23081;DHT22;11708;50.570;8.532;2023-05-13T03:43:55;10.10;99.90
23081;DHT22;11708;50.570;8.532;2023-05-13T03:46:20;10.00;99.90
23081;DHT22;11708;50.570;8.532;2023-05-13T03:48:47;10.00;99.90
23081;DHT22;11708;50.570;8.532;2023-05-13T03:51:13;9.90;99.90
23081;DHT22;11708;50.570;8.532;2023-05-13T03:53:39;9.90;99.90
23081;DHT22;11708;50.570;8.532;2023-05-13T03:56:05;9.90;99.90
23081;DHT22;11708;50.570;8.532;2023-05-13T03:58:30;9.90;99.90
23081;DHT22;11708;50.570;8.532;2023-05-13T04:00:56;9.90;99.90
23081;DHT22;11708;50.570;8.532;2023-05-13T04:03:21;9.90;99.90
23081;DHT22;11708;50.570;8.532;2023-05-13T04:05:48;9.90;99.90
23081;DHT22;11708;50.570;8.532;2023-05-13T04:08:14;9.80;99.90
23081;DHT22;11708;50.570;8.532;2023-05-13T04:10:40;9.80;99.90
23081;DHT22;11708;50.570;8.532;2023-05-13T04:13:06;9.80;99.90
23081;DHT22;11708;50.570;8.532;2023-05-13T04:15:31;10.10;99.90
23081;DHT22;11708;50.570;8.532;2023-05-13T04:17:57;9.80;99.90
23081;DHT22;11708;50.570;8.532;2023-05-13T04:20:23;9.80;99.90
23081;DHT22;11708;50.570;8.532;2023-05-13T04:22:50;9.80;99.90
23081;DHT22;11708;50.570;8.532;2023-05-13T04:25:16;9.50;99.90
23081;DHT22;11708;50.570;8.532;2023-05-13T04:27:41;9.70;99.90
23081;DHT22;11708;50.570;8.532;2023-05-13T04:30:08;9.70;99.90
23081;DHT22;11708;50.570;8.532;2023-05-13T04:32:33;9.70;99.90
23081;DHT22;11708;50.570;8.532;2023-05-13T04:34:59;9.70;99.90
23081;DHT22;11708;50.570;8.532;2023-05-13T04:37:25;9.70;99.90
23081;DHT22;11708;50.570;8.532;2023-05-13T04:39:50;9.70;99.90
23081;DHT22;11708;50.570;8.532;2023-05-13T04:42:16;9.70;99.90
23081;DHT22;11708;50.570;8.532;2023-05-13T04:44:42;9.70;99.90
23081;DHT22;11708;50.570;8.532;2023-05-13T04:47:07;9.70;99.90
23081;DHT22;11708;50.570;8.532;2023-05-13T04:49:33;9.80;99.90
23081;DHT22;11708;50.570;8.532;2023-05-13T04:52:01;9.70;99.90
23081;DHT22;11708;50.570;8.532;2023-05-13T04:54:27;9.80;99.90
23081;DHT22;11708;50.570;8.532;2023-05-13T04:56:52;9.80;99.90
23081;DHT22;11708;50.570;8.532;2023-05-13T04:59:18;9.80;99.90
23081;DHT22;11708;50.570;8.532;2023-05-13T05:01:43;9.80;99.90
23081;DHT22;11708;50.570;8.532;2023-05-13T05:04:10;9.80;99.90
23081;DHT22;11708;50.570;8.532;2023-05-13T05:06:36;9.80;99.90
23081;DHT22;11708;50.570;8.532;2023-05-13T05:09:02;9.90;99.90
23081;DHT22;11708;50.570;8.532;2023-05-13T05:11:28;9.90;99.90
23081;DHT22;11708;50.570;8.532;2023-05-13T05:13:53;9.90;99.90
23081;DHT22;11708;50.570;8.532;2023-05-13T05:16:19;9.90;99.90
23081;DHT22;11708;50.570;8.532;2023-05-13T05:18:44;9.90;99.90
23081;DHT22;11708;50.570;8.532;2023-05-13T05:21:11;10.00;99.90
23081;DHT22;11708;50.570;8.532;2023-05-13T05:23:37;9.90;99.90
23081;DHT22;11708;50.570;8.532;2023-05-13T05:26:03;10.00;99.90
23081;DHT22;11708;50.570;8.532;2023-05-13T05:28:29;10.00;99.90
23081;DHT22;11708;50.570;8.532;2023-05-13T05:30:55;10.00;99.90
23081;DHT22;11708;50.570;8.532;2023-05-13T05:33:20;10.00;99.90
23081;DHT22;11708;50.570;8.532;2023-05-13T05:35:46;10.00;99.90
23081;DHT22;11708;50.570;8.532;2023-05-13T05:38:12;10.10;99.90
23081;DHT22;11708;50.570;8.532;2023-05-13T05:40:40;10.10;99.90
23081;DHT22;11708;50.570;8.532;2023-05-13T05:43:06;10.20;99.90
23081;DHT22;11708;50.570;8.532;2023-05-13T05:45:33;10.50;99.90
23081;DHT22;11708;50.570;8.532;2023-05-13T05:47:59;10.30;99.90
23081;DHT22;11708;50.570;8.532;2023-05-13T05:50:26;10.40;99.90
23081;DHT22;11708;50.570;8.532;2023-05-13T05:52:51;10.40;99.90
23081;DHT22;11708;50.570;8.532;2023-05-13T05:55:17;10.90;99.90
23081;DHT22;11708;50.570;8.532;2023-05-13T05:57:43;10.50;99.90
23081;DHT22;11708;50.570;8.532;2023-05-13T06:00:08;10.60;99.90
23081;DHT22;11708;50.570;8.532;2023-05-13T06:02:34;10.70;99.90
23081;DHT22;11708;50.570;8.532;2023-05-13T06:05:00;10.80;99.90
23081;DHT22;11708;50.570;8.532;2023-05-13T06:07:27;10.80;99.90
23081;DHT22;11708;50.570;8.532;2023-05-13T06:09:53;10.90;99.90
23081;DHT22;11708;50.570;8.532;2023-05-13T06:12:19;10.90;99.90
23081;DHT22;11708;50.570;8.532;2023-05-13T06:14:44;11.10;99.90
23081;DHT22;11708;50.570;8.532;2023-05-13T06:17:10;11.10;99.90
23081;DHT22;11708;50.570;8.532;2023-05-13T06:19:39;11.20;99.90
23081;DHT22;11708;50.570;8.532;2023-05-13T06:22:05;11.30;99.90
23081;DHT22;11708;50.570;8.532;2023-05-13T06:24:30;11.30;99.90
23081;DHT22;11708;50.570;8.532;2023-05-13T06:26:56;11.40;99.90
23081;DHT22;11708;50.570;8.532;2023-05-13T06:29:21;11.40;99.90
23081;DHT22;11708;50.570;8.532;2023-05-13T06:31:47;11.40;99.90
23081;DHT22;11708;50.570;8.532;2023-05-13T06:34:12;11.50;99.90
23081;DHT22;11708;50.570;8.532;2023-05-13T06:36:41;11.60;99.90
23081;DHT22;11708;50.570;8.532;2023-05-13T06:39:07;11.70;99.90
23081;DHT22;11708;50.570;8.532;2023-05-13T06:41:33;11.80;99.90
23081;DHT22;11708;50.570;8.532;2023-05-13T06:43:58;11.90;99.90
23081;DHT22;11708;50.570;8.532;2023-05-13T06:46:25;12.00;99.90
23081;DHT22;11708;50.570;8.532;2023-05-13T06:48:51;12.10;99.90
23081;DHT22;11708;50.570;8.532;2023-05-13T06:51:18;12.20;99.90
23081;DHT22;11708;50.570;8.532;2023-05-13T06:53:43;12.30;99.90
23081;DHT22;11708;50.570;8.532;2023-05-13T06:56:09;12.40;99.90
23081;DHT22;11708;50.570;8.532;2023-05-13T06:58:34;12.40;99.90
23081;DHT22;11708;50.570;8.532;2023-05-13T07:01:00;12.60;99.90
23081;DHT22;11708;50.570;8.532;2023-05-13T07:03:26;12.60;99.90
23081;DHT22;11708;50.570;8.532;2023-05-13T07:05:51;12.70;99.90
23081;DHT22;11708;50.570;8.532;2023-05-13T07:08:17;12.70;99.90
23081;DHT22;11708;50.570;8.532;2023-05-13T07:10:43;12.90;99.90
23081;DHT22;11708;50.570;8.532;2023-05-13T07:13:09;12.90;99.90
23081;DHT22;11708;50.570;8.532;2023-05-13T07:15:35;13.00;99.90
23081;DHT22;11708;50.570;8.532;2023-05-13T07:18:01;13.00;99.90
23081;DHT22;11708;50.570;8.532;2023-05-13T07:20:26;13.20;99.90
23081;DHT22;11708;50.570;8.532;2023-05-13T07:22:52;13.20;99.90
23081;DHT22;11708;50.570;8.532;2023-05-13T07:25:18;13.30;99.90
23081;DHT22;11708;50.570;8.532;2023-05-13T07:27:43;13.40;99.90
23081;DHT22;11708;50.570;8.532;2023-05-13T07:30:10;13.40;99.90
23081;DHT22;11708;50.570;8.532;2023-05-13T07:32:37;13.60;99.90
23081;DHT22;11708;50.570;8.532;2023-05-13T07:35:03;13.70;99.90
23081;DHT22;11708;50.570;8.532;2023-05-13T07:37:29;13.70;99.90
23081;DHT22;11708;50.570;8.532;2023-05-13T07:39:55;13.80;99.90
23081;DHT22;11708;50.570;8.532;2023-05-13T07:42:20;13.90;99.90
23081;DHT22;11708;50.570;8.532;2023-05-13T07:44:46;14.00;99.90
23081;DHT22;11708;50.570;8.532;2023-05-13T07:47:12;14.10;99.90
23081;DHT22;11708;50.570;8.532;2023-05-13T07:49:38;14.20;99.90
23081;DHT22;11708;50.570;8.532;2023-05-13T07:52:04;14.40;99.90
23081;DHT22;11708;50.570;8.532;2023-05-13T07:54:30;14.50;99.90
23081;DHT22;11708;50.570;8.532;2023-05-13T07:56:57;14.60;99.90
23081;DHT22;11708;50.570;8.532;2023-05-13T07:59:22;14.70;99.90
23081;DHT22;11708;50.570;8.532;2023-05-13T08:01:48;14.80;99.90
23081;DHT22;11708;50.570;8.532;2023-05-13T08:04:14;15.00;99.90
23081;DHT22;11708;50.570;8.532;2023-05-13T08:06:39;15.00;99.90
23081;DHT22;11708;50.570;8.532;2023-05-13T08:09:05;15.10;99.90
23081;DHT22;11708;50.570;8.532;2023-05-13T08:11:31;15.20;99.90
23081;DHT22;11708;50.570;8.532;2023-05-13T08:13:56;15.40;99.90
23081;DHT22;11708;50.570;8.532;2023-05-13T08:16:22;15.50;99.90
23081;DHT22;11708;50.570;8.532;2023-05-13T08:18:47;15.60;99.90
23081;DHT22;11708;50.570;8.532;2023-05-13T08:21:13;15.60;99.90
23081;DHT22;11708;50.570;8.532;2023-05-13T08:23:39;15.70;99.90
23081;DHT22;11708;50.570;8.532;2023-05-13T08:26:04;15.90;99.90
23081;DHT22;11708;50.570;8.532;2023-05-13T08:28:30;15.80;99.90
23081;DHT22;11708;50.570;8.532;2023-05-13T08:30:55;15.90;99.90
23081;DHT22;11708;50.570;8.532;2023-05-13T08:33:30;16.00;99.90
23081;DHT22;11708;50.570;8.532;2023-05-13T08:35:59;16.10;99.90
23081;DHT22;11708;50.570;8.532;2023-05-13T08:38:25;16.20;99.90
23081;DHT22;11708;50.570;8.532;2023-05-13T08:40:50;16.30;99.90
23081;DHT22;11708;50.570;8.532;2023-05-13T08:43:18;16.40;99.90
23081;DHT22;11708;50.570;8.532;2023-05-13T08:45:45;16.40;99.90
23081;DHT22;11708;50.570;8.532;2023-05-13T08:48:14;16.50;99.90
23081;DHT22;11708;50.570;8.532;2023-05-13T08:50:40;16.50;99.90
23081;DHT22;11708;50.570;8.532;2023-05-13T08:53:06;16.60;99.90
23081;DHT22;11708;50.570;8.532;2023-05-13T08:55:32;16.50;99.90
23081;DHT22;11708;50.570;8.532;2023-05-13T08:57:58;16.70;99.90
23081;DHT22;11708;50.570;8.532;2023-05-13T09:00:23;16.80;99.90
23081;DHT22;11708;50.570;8.532;2023-05-13T09:02:49;16.80;99.90
23081;DHT22;11708;50.570;8.532;2023-05-13T09:05:16;16.90;99.90
23081;DHT22;11708;50.570;8.532;2023-05-13T09:07:44;16.90;99.90
23081;DHT22;11708;50.570;8.532;2023-05-13T09:10:10;17.00;99.90
23081;DHT22;11708;50.570;8.532;2023-05-13T09:12:55;17.10;99.90
23081;DHT22;11708;50.570;8.532;2023-05-13T09:15:25;17.40;99.90
23081;DHT22;11708;50.570;8.532;2023-05-13T09:17:54;17.30;99.90
23081;DHT22;11708;50.570;8.532;2023-05-13T09:20:21;17.40;99.90
23081;DHT22;11708;50.570;8.532;2023-05-13T09:22:52;17.50;99.90
23081;DHT22;11708;50.570;8.532;2023-05-13T09:25:19;17.70;99.90
23081;DHT22;11708;50.570;8.532;2023-05-13T09:27:47;17.80;99.90
23081;DHT22;11708;50.570;8.532;2023-05-13T09:30:13;17.90;99.90
23081;DHT22;11708;50.570;8.532;2023-05-13T09:32:39;18.10;99.90
23081;DHT22;11708;50.570;8.532;2023-05-13T09:35:14;18.20;99.90
23081;DHT22;11708;50.570;8.532;2023-05-13T09:37:46;18.40;99.90
23081;DHT22;11708;50.570;8.532;2023-05-13T09:40:14;18.50;99.90
23081;DHT22;11708;50.570;8.532;2023-05-13T09:42:44;18.60;99.90
23081;DHT22;11708;50.570;8.532;2023-05-13T09:45:14;18.70;99.90
23081;DHT22;11708;50.570;8.532;2023-05-13T09:47:40;18.70;99.90
23081;DHT22;11708;50.570;8.532;2023-05-13T09:50:08;18.80;99.90
23081;DHT22;11708;50.570;8.532;2023-05-13T09:52:37;18.90;99.90
23081;DHT22;11708;50.570;8.532;2023-05-13T09:55:05;18.90;99.90
23081;DHT22;11708;50.570;8.532;2023-05-13T09:57:33;18.90;99.90
23081;DHT22;11708;50.570;8.532;2023-05-13T10:00:00;18.90;99.90
23081;DHT22;11708;50.570;8.532;2023-05-13T10:02:27;19.00;99.90
23081;DHT22;11708;50.570;8.532;2023-05-13T10:04:53;19.00;99.90
23081;DHT22;11708;50.570;8.532;2023-05-13T10:07:21;19.10;99.90
23081;DHT22;11708;50.570;8.532;2023-05-13T10:09:56;19.10;99.90
23081;DHT22;11708;50.570;8.532;2023-05-13T10:12:24;19.30;99.90
23081;DHT22;11708;50.570;8.532;2023-05-13T10:14:51;19.40;99.90
23081;DHT22;11708;50.570;8.532;2023-05-13T10:17:21;19.40;99.90
23081;DHT22;11708;50.570;8.532;2023-05-13T10:19:48;19.60;99.90
23081;DHT22;11708;50.570;8.532;2023-05-13T10:22:14;19.60;99.90
23081;DHT22;11708;50.570;8.532;2023-05-13T10:24:41;19.60;99.90
23081;DHT22;11708;50.570;8.532;2023-05-13T10:27:07;19.70;99.90
23081;DHT22;11708;50.570;8.532;2023-05-13T10:29:36;19.80;99.90
23081;DHT22;11708;50.570;8.532;2023-05-13T10:32:03;19.80;99.90
23081;DHT22;11708;50.570;8.532;2023-05-13T10:34:31;19.90;99.90
23081;DHT22;11708;50.570;8.532;2023-05-13T10:37:19;20.00;99.90
23081;DHT22;11708;50.570;8.532;2023-05-13T10:45:42;20.40;99.90
23081;DHT22;11708;50.570;8.532;2023-05-13T10:48:10;20.50;99.90
23081;DHT22;11708;50.570;8.532;2023-05-13T10:50:37;20.60;99.90
23081;DHT22;11708;50.570;8.532;2023-05-13T10:53:17;20.70;99.90
23081;DHT22;11708;50.570;8.532;2023-05-13T10:55:45;20.70;99.90
23081;DHT22;11708;50.570;8.532;2023-05-13T10:58:13;20.80;99.90
23081;DHT22;11708;50.570;8.532;2023-05-13T11:00:43;20.70;99.90
23081;DHT22;11708;50.570;8.532;2023-05-13T11:03:15;20.70;99.90
23081;DHT22;11708;50.570;8.532;2023-05-13T11:06:12;20.60;99.90
23081;DHT22;11708;50.570;8.532;2023-05-13T11:08:40;20.50;99.90
23081;DHT22;11708;50.570;8.532;2023-05-13T11:11:30;20.40;99.90
23081;DHT22;11708;50.570;8.532;2023-05-13T11:19:27;20.80;99.90
23081;DHT22;11708;50.570;8.532;2023-05-13T11:22:03;21.00;99.90
23081;DHT22;11708;50.570;8.532;2023-05-13T11:24:29;21.10;99.90
23081;DHT22;11708;50.570;8.532;2023-05-13T11:26:56;21.20;99.90
23081;DHT22;11708;50.570;8.532;2023-05-13T11:29:28;21.20;99.90
23081;DHT22;11708;50.570;8.532;2023-05-13T11:31:54;21.20;99.90
23081;DHT22;11708;50.570;8.532;2023-05-13T11:34:22;21.20;99.90
23081;DHT22;11708;50.570;8.532;2023-05-13T11:36:49;21.20;99.90
23081;DHT22;11708;50.570;8.532;2023-05-13T11:39:16;21.30;99.90
23081;DHT22;11708;50.570;8.532;2023-05-13T11:41:44;21.40;99.90
23081;DHT22;11708;50.570;8.532;2023-05-13T11:44:14;21.50;99.90
23081;DHT22;11708;50.570;8.532;2023-05-13T11:46:56;21.90;99.90
23081;DHT22;11708;50.570;8.532;2023-05-13T11:49:42;22.30;99.90
23081;DHT22;11708;50.570;8.532;2023-05-13T11:52:16;22.70;99.90
23081;DHT22;11708;50.570;8.532;2023-05-13T11:54:46;23.00;99.90
23081;DHT22;11708;50.570;8.532;2023-05-13T11:57:31;23.30;99.90
23081;DHT22;11708;50.570;8.532;2023-05-13T11:59:57;23.70;99.90
23081;DHT22;11708;50.570;8.532;2023-05-13T12:02:30;24.00;99.90
23081;DHT22;11708;50.570;8.532;2023-05-13T12:05:05;24.30;99.90
23081;DHT22;11708;50.570;8.532;2023-05-13T12:07:31;24.40;99.90
23081;DHT22;11708;50.570;8.532;2023-05-13T12:09:59;24.40;99.90
23081;DHT22;11708;50.570;8.532;2023-05-13T12:12:27;24.20;99.90
23081;DHT22;11708;50.570;8.532;2023-05-13T12:14:54;23.80;99.90
23081;DHT22;11708;50.570;8.532;2023-05-13T12:17:21;23.10;99.90
23081;DHT22;11708;50.570;8.532;2023-05-13T12:20:10;22.40;99.90
23081;DHT22;11708;50.570;8.532;2023-05-13T12:22:47;21.80;99.90
23081;DHT22;11708;50.570;8.532;2023-05-13T12:25:45;21.50;99.90
23081;DHT22;11708;50.570;8.532;2023-05-13T12:28:21;21.70;99.90
23081;DHT22;11708;50.570;8.532;2023-05-13T12:33:31;22.40;99.90
23081;DHT22;11708;50.570;8.532;2023-05-13T12:38:58;23.60;99.90
23081;DHT22;11708;50.570;8.532;2023-05-13T12:41:29;24.10;99.90
23081;DHT22;11708;50.570;8.532;2023-05-13T12:44:00;24.50;99.90
23081;DHT22;11708;50.570;8.532;2023-05-13T12:46:28;24.80;99.90
23081;DHT22;11708;50.570;8.532;2023-05-13T12:48:55;25.20;99.90
23081;DHT22;11708;50.570;8.532;2023-05-13T12:53:47;25.80;99.90
23081;DHT22;11708;50.570;8.532;2023-05-13T12:56:13;26.00;99.90
23081;DHT22;11708;50.570;8.532;2023-05-13T12:58:39;25.70;99.70
23081;DHT22;11708;50.570;8.532;2023-05-13T13:01:04;25.30;99.70
23081;DHT22;11708;50.570;8.532;2023-05-13T13:03:30;24.50;99.90
23081;DHT22;11708;50.570;8.532;2023-05-13T13:05:56;24.40;99.90
23081;DHT22;11708;50.570;8.532;2023-05-13T13:08:22;24.20;99.90
23081;DHT22;11708;50.570;8.532;2023-05-13T13:10:48;24.00;99.90
23081;DHT22;11708;50.570;8.532;2023-05-13T13:13:13;23.80;99.90
23081;DHT22;11708;50.570;8.532;2023-05-13T13:15:39;23.20;99.90
23081;DHT22;11708;50.570;8.532;2023-05-13T13:18:05;22.80;99.90
23081;DHT22;11708;50.570;8.532;2023-05-13T13:20:30;22.60;99.90
23081;DHT22;11708;50.570;8.532;2023-05-13T13:22:56;22.50;99.90
23081;DHT22;11708;50.570;8.532;2023-05-13T13:25:24;22.90;99.90
23081;DHT22;11708;50.570;8.532;2023-05-13T13:27:50;23.00;99.90
23081;DHT22;11708;50.570;8.532;2023-05-13T13:30:15;23.00;99.90
23081;DHT22;11708;50.570;8.532;2023-05-13T13:32:41;23.10;99.90
23081;DHT22;11708;50.570;8.532;2023-05-13T13:35:08;22.90;99.90
23081;DHT22;11708;50.570;8.532;2023-05-13T13:37:34;22.80;99.90
23081;DHT22;11708;50.570;8.532;2023-05-13T13:39:59;22.30;99.90
23081;DHT22;11708;50.570;8.532;2023-05-13T13:42:25;22.00;99.90
23081;DHT22;11708;50.570;8.532;2023-05-13T13:44:50;21.70;99.90
23081;DHT22;11708;50.570;8.532;2023-05-13T13:47:16;21.30;99.90
23081;DHT22;11708;50.570;8.532;2023-05-13T13:49:41;20.90;99.90
23081;DHT22;11708;50.570;8.532;2023-05-13T13:52:07;20.60;99.90
23081;DHT22;11708;50.570;8.532;2023-05-13T13:54:33;20.20;99.90
23081;DHT22;11708;50.570;8.532;2023-05-13T13:56:58;19.80;99.90
23081;DHT22;11708;50.570;8.532;2023-05-13T13:59:24;19.30;99.90
23081;DHT22;11708;50.570;8.532;2023-05-13T14:01:49;19.00;99.90
23081;DHT22;11708;50.570;8.532;2023-05-13T14:04:17;18.80;99.90
23081;DHT22;11708;50.570;8.532;2023-05-13T14:06:52;18.80;99.90
23081;DHT22;11708;50.570;8.532;2023-05-13T14:09:17;18.70;99.90
23081;DHT22;11708;50.570;8.532;2023-05-13T14:11:43;18.70;99.90
23081;DHT22;11708;50.570;8.532;2023-05-13T14:14:09;18.90;99.90
23081;DHT22;11708;50.570;8.532;2023-05-13T14:16:34;19.30;99.90
23081;DHT22;11708;50.570;8.532;2023-05-13T14:19:00;19.80;99.90
23081;DHT22;11708;50.570;8.532;2023-05-13T14:21:26;20.10;99.90
23081;DHT22;11708;50.570;8.532;2023-05-13T14:23:51;20.70;99.90
23081;DHT22;11708;50.570;8.532;2023-05-13T14:26:17;21.00;99.90
23081;DHT22;11708;50.570;8.532;2023-05-13T14:28:43;21.50;99.90
23081;DHT22;11708;50.570;8.532;2023-05-13T14:31:09;22.10;99.90
23081;DHT22;11708;50.570;8.532;2023-05-13T14:33:35;22.50;99.90
23081;DHT22;11708;50.570;8.532;2023-05-13T14:36:01;22.50;99.90
23081;DHT22;11708;50.570;8.532;2023-05-13T14:38:32;22.80;99.90
23081;DHT22;11708;50.570;8.532;2023-05-13T14:40:59;22.60;99.90
23081;DHT22;11708;50.570;8.532;2023-05-13T14:43:25;22.70;99.90
23081;DHT22;11708;50.570;8.532;2023-05-13T14:45:50;22.90;99.90
23081;DHT22;11708;50.570;8.532;2023-05-13T14:48:18;22.90;99.90
23081;DHT22;11708;50.570;8.532;2023-05-13T14:50:45;22.90;99.90
23081;DHT22;11708;50.570;8.532;2023-05-13T14:53:10;23.10;99.90
23081;DHT22;11708;50.570;8.532;2023-05-13T14:55:37;23.10;99.90
23081;DHT22;11708;50.570;8.532;2023-05-13T14:58:03;22.80;99.90
23081;DHT22;11708;50.570;8.532;2023-05-13T15:00:29;22.40;99.90
23081;DHT22;11708;50.570;8.532;2023-05-13T15:02:56;21.90;99.90
23081;DHT22;11708;50.570;8.532;2023-05-13T15:05:22;22.50;99.90
23081;DHT22;11708;50.570;8.532;2023-05-13T15:07:48;22.30;99.90
23081;DHT22;11708;50.570;8.532;2023-05-13T15:10:13;22.60;99.90
23081;DHT22;11708;50.570;8.532;2023-05-13T15:12:39;22.80;99.90
23081;DHT22;11708;50.570;8.532;2023-05-13T15:15:05;22.90;99.90
23081;DHT22;11708;50.570;8.532;2023-05-13T15:17:31;22.90;99.90
23081;DHT22;11708;50.570;8.532;2023-05-13T15:19:56;22.70;99.90
23081;DHT22;11708;50.570;8.532;2023-05-13T15:22:22;22.10;99.90
23081;DHT22;11708;50.570;8.532;2023-05-13T15:24:47;21.10;99.90
23081;DHT22;11708;50.570;8.532;2023-05-13T15:27:13;20.60;99.90
23081;DHT22;11708;50.570;8.532;2023-05-13T15:29:38;20.30;99.90
23081;DHT22;11708;50.570;8.532;2023-05-13T15:32:05;20.00;99.90
23081;DHT22;11708;50.570;8.532;2023-05-13T15:34:31;19.70;99.90
23081;DHT22;11708;50.570;8.532;2023-05-13T15:36:56;19.40;99.90
23081;DHT22;11708;50.570;8.532;2023-05-13T15:39:22;19.30;99.90
23081;DHT22;11708;50.570;8.532;2023-05-13T15:41:47;19.20;99.90
23081;DHT22;11708;50.570;8.532;2023-05-13T15:44:13;19.00;99.90
23081;DHT22;11708;50.570;8.532;2023-05-13T15:46:39;19.00;99.90
23081;DHT22;11708;50.570;8.532;2023-05-13T15:49:05;18.90;99.90
23081;DHT22;11708;50.570;8.532;2023-05-13T15:51:31;18.80;99.90
23081;DHT22;11708;50.570;8.532;2023-05-13T15:56:24;18.60;99.90